createdAt,value
2018-12-26T00:02:22.064Z,60.59
2018-12-26T00:04:51.880Z,60.13
2018-12-26T00:07:21.254Z,60.27
2018-12-26T00:09:50.754Z,60.42
2018-12-26T00:12:20.409Z,60.67
2018-12-26T00:14:50.091Z,61.13
2018-12-26T00:17:19.556Z,60.81
2018-12-26T00:19:49.239Z,61.01
2018-12-26T00:22:18.940Z,61.41
2018-12-26T00:24:48.658Z,61.54
2018-12-26T00:27:18.365Z,61.26
2018-12-26T00:29:48.957Z,61.10
2018-12-26T00:32:17.891Z,61.65
2018-12-26T00:34:47.747Z,61.53
2018-12-26T00:37:17.256Z,61.64
2018-12-26T00:39:48.034Z,61.68
2018-12-26T00:42:16.892Z,61.85
2018-12-26T00:44:46.369Z,61.59
2018-12-26T00:47:16.002Z,62.43
2018-12-26T00:49:45.765Z,62.02
2018-12-26T00:52:15.288Z,62.69
2018-12-26T00:54:44.729Z,62.70
2018-12-26T00:57:15.803Z,63.13
2018-12-26T00:59:44.659Z,63.46
2018-12-26T01:02:14.386Z,63.50
2018-12-26T01:04:44.336Z,62.95
2018-12-26T01:07:13.918Z,63.57
2018-12-26T01:09:43.631Z,63.95
2018-12-26T01:12:13.547Z,64.06
2018-12-26T01:14:43.008Z,64.18
2018-12-26T01:17:12.731Z,63.60
2018-12-26T01:19:42.471Z,64.45
2018-12-26T01:22:11.934Z,64.65
2018-12-26T01:24:41.693Z,64.55
2018-12-26T01:27:11.536Z,64.05
2018-12-26T01:29:41.188Z,64.67
2018-12-26T01:32:10.949Z,65.09
2018-12-26T01:34:40.459Z,64.76
2018-12-26T01:37:10.049Z,65.28
2018-12-26T01:39:39.401Z,65.48
2018-12-26T01:42:09.081Z,65.08
2018-12-26T01:44:38.425Z,64.96
2018-12-26T01:47:08.047Z,65.52
2018-12-26T01:49:38.551Z,65.38
2018-12-26T01:52:08.170Z,64.97
2018-12-26T01:54:37.689Z,65.04
2018-12-26T01:57:07.446Z,65.28
2018-12-26T01:59:36.862Z,64.98
2018-12-26T02:02:06.599Z,64.88
2018-12-26T02:04:36.007Z,65.40
2018-12-26T02:07:05.624Z,65.36
2018-12-26T02:09:35.731Z,65.33
2018-12-26T02:12:05.357Z,64.86
2018-12-26T02:14:34.942Z,64.95
2018-12-26T02:17:05.624Z,65.31
2018-12-26T02:19:35.055Z,65.17
2018-12-26T02:22:04.523Z,65.07
2018-12-26T02:24:34.464Z,65.73
2018-12-26T02:27:04.051Z,65.38
2018-12-26T02:29:33.556Z,64.98
2018-12-26T02:32:03.472Z,65.63
2018-12-26T02:34:32.975Z,65.26
2018-12-26T02:37:02.653Z,65.84
2018-12-26T02:39:32.348Z,66.26
2018-12-26T02:42:01.970Z,66.38
2018-12-26T02:44:31.748Z,65.67
2018-12-26T02:47:01.728Z,66.27
2018-12-26T02:49:31.166Z,66.50
2018-12-26T02:52:00.963Z,65.90
2018-12-26T02:54:30.664Z,66.18
2018-12-26T02:57:00.357Z,66.28
2018-12-26T02:59:29.933Z,66.11
2018-12-26T03:01:59.696Z,65.81
2018-12-26T03:04:29.181Z,65.41
2018-12-26T03:06:58.672Z,65.79
2018-12-26T03:09:28.435Z,66.16
2018-12-26T03:11:58.109Z,65.66
2018-12-26T03:14:27.686Z,66.20
2018-12-26T03:16:57.674Z,66.21
2018-12-26T03:19:27.234Z,66.37
2018-12-26T03:21:56.737Z,66.65
2018-12-26T03:24:26.457Z,66.62
2018-12-26T03:26:56.736Z,66.32
2018-12-26T03:29:25.908Z,66.26
2018-12-26T03:31:56.036Z,67.13
2018-12-26T03:34:25.810Z,67.01
2018-12-26T03:36:55.221Z,67.56
2018-12-26T03:39:25.179Z,67.14
2018-12-26T03:41:54.846Z,67.28
2018-12-26T03:44:24.607Z,67.07
2018-12-26T03:46:54.295Z,66.90
2018-12-26T03:49:24.783Z,67.17
2018-12-26T03:51:54.235Z,67.25
2018-12-26T03:54:24.117Z,67.13
2018-12-26T03:56:54.139Z,67.38
2018-12-26T03:59:23.869Z,66.97
2018-12-26T04:01:53.623Z,67.23
2018-12-26T04:04:23.306Z,66.63
2018-12-26T04:06:53.062Z,66.74
2018-12-26T04:09:22.692Z,66.82
2018-12-26T04:11:52.488Z,66.35
2018-12-26T04:14:24.880Z,66.16
2018-12-26T04:16:54.456Z,66.73
2018-12-26T04:19:23.981Z,66.38
2018-12-26T04:21:54.421Z,66.02
2018-12-26T04:24:23.826Z,65.79
2018-12-26T04:26:53.266Z,65.96
2018-12-26T04:29:22.892Z,66.13
2018-12-26T04:31:52.557Z,65.88
2018-12-26T04:34:25.429Z,66.14
2018-12-26T04:36:55.142Z,65.86
2018-12-26T04:39:25.258Z,65.65
2018-12-26T04:41:54.753Z,65.98
2018-12-26T04:44:24.139Z,66.03
2018-12-26T04:46:53.499Z,65.33
2018-12-26T04:49:23.954Z,65.72
2018-12-26T04:51:52.709Z,65.26
2018-12-26T04:54:22.175Z,65.45
2018-12-26T04:56:52.226Z,65.40
2018-12-26T04:59:21.604Z,65.30
2018-12-26T05:01:50.935Z,65.36
2018-12-26T05:04:20.684Z,66.01
2018-12-26T05:06:50.064Z,65.55
2018-12-26T05:09:19.668Z,65.85
2018-12-26T05:11:49.298Z,65.92
2018-12-26T05:14:18.821Z,66.46
2018-12-26T05:16:48.465Z,66.31
2018-12-26T05:19:18.291Z,66.00
2018-12-26T05:21:48.054Z,65.94
2018-12-26T05:24:17.900Z,66.20
2018-12-26T05:26:47.885Z,66.81
2018-12-26T05:29:17.543Z,66.07
2018-12-26T05:31:47.272Z,66.18
2018-12-26T05:34:17.305Z,66.64
2018-12-26T05:36:46.737Z,66.54
2018-12-26T05:39:16.339Z,66.77
2018-12-26T05:41:46.187Z,66.59
2018-12-26T05:44:15.701Z,67.10
2018-12-26T05:46:45.540Z,66.57
2018-12-26T05:49:15.345Z,66.97
2018-12-26T05:51:44.974Z,66.92
2018-12-26T05:54:14.550Z,66.60
2018-12-26T05:56:44.534Z,66.84
2018-12-26T05:59:13.943Z,67.29
2018-12-26T06:01:43.752Z,67.49
2018-12-26T06:04:13.479Z,67.41
2018-12-26T06:06:43.039Z,67.53
2018-12-26T06:09:12.668Z,67.76
2018-12-26T06:11:42.879Z,67.97
2018-12-26T06:14:12.382Z,68.17
2018-12-26T06:16:42.160Z,67.54
2018-12-26T06:19:12.007Z,67.46
2018-12-26T06:21:41.392Z,67.89
2018-12-26T06:24:11.280Z,67.46
2018-12-26T06:26:40.718Z,67.95
2018-12-26T06:29:10.383Z,67.19
2018-12-26T06:31:40.853Z,67.03
2018-12-26T06:34:10.969Z,66.83
2018-12-26T06:36:40.768Z,66.95
2018-12-26T06:39:10.851Z,67.50
2018-12-26T06:41:40.536Z,66.84
2018-12-26T06:44:10.132Z,66.65
2018-12-26T06:46:40.277Z,66.85
2018-12-26T06:49:09.773Z,66.08
2018-12-26T06:51:39.501Z,66.03
2018-12-26T06:54:09.685Z,65.98
2018-12-26T06:56:39.349Z,66.13
2018-12-26T06:59:08.875Z,66.67
2018-12-26T07:01:38.731Z,66.19
2018-12-26T07:04:08.352Z,66.55
2018-12-26T07:06:38.364Z,66.25
2018-12-26T07:09:08.274Z,66.68
2018-12-26T07:11:37.932Z,66.25
2018-12-26T07:14:07.379Z,65.72
2018-12-26T07:16:37.385Z,66.09
2018-12-26T07:19:07.146Z,65.54
2018-12-26T07:21:37.357Z,65.43
2018-12-26T07:24:07.014Z,66.26
2018-12-26T07:26:36.558Z,65.60
2018-12-26T07:29:06.242Z,65.13
2018-12-26T07:31:36.207Z,64.99
2018-12-26T07:34:05.778Z,64.17
2018-12-26T07:36:35.404Z,64.00
2018-12-26T07:39:06.734Z,63.53
2018-12-26T07:41:36.586Z,63.39
2018-12-26T07:44:07.124Z,64.12
2018-12-26T07:46:37.220Z,63.19
2018-12-26T07:49:06.706Z,64.10
2018-12-26T07:51:36.305Z,64.00
2018-12-26T07:54:06.463Z,62.08
2018-12-26T07:56:36.068Z,62.48
2018-12-26T07:59:06.220Z,62.24
2018-12-26T08:01:35.906Z,62.78
2018-12-26T08:04:05.489Z,62.58
2018-12-26T08:06:35.041Z,62.34
2018-12-26T08:09:05.877Z,61.97
2018-12-26T08:11:35.430Z,61.95
2018-12-26T08:14:05.759Z,61.48
2018-12-26T08:16:35.654Z,61.24
2018-12-26T08:19:05.293Z,61.42
2018-12-26T08:21:34.892Z,60.16
2018-12-26T08:24:05.004Z,60.00
2018-12-26T08:26:34.401Z,60.08
2018-12-26T08:29:03.948Z,59.05
2018-12-26T08:31:33.577Z,58.09
2018-12-26T08:34:03.163Z,59.10
2018-12-26T08:36:32.866Z,59.25
2018-12-26T08:39:02.456Z,58.73
2018-12-26T08:41:31.992Z,59.48
2018-12-26T08:44:01.640Z,58.62
2018-12-26T08:46:31.221Z,59.27
2018-12-26T08:49:00.819Z,58.15
2018-12-26T08:51:30.409Z,58.30
2018-12-26T08:54:00.256Z,59.88
2018-12-26T08:56:29.725Z,60.82
2018-12-26T08:58:59.347Z,62.64
2018-12-26T09:01:29.263Z,62.02
2018-12-26T09:03:58.970Z,62.11
2018-12-26T09:06:28.462Z,59.97
2018-12-26T09:08:58.358Z,58.73
2018-12-26T09:11:28.318Z,57.70
2018-12-26T09:13:58.096Z,57.89
2018-12-26T09:16:28.446Z,59.07
2018-12-26T09:18:58.125Z,59.19
2018-12-26T09:21:27.745Z,59.44
2018-12-26T09:23:57.497Z,60.43
2018-12-26T09:26:27.054Z,58.99
2018-12-26T09:28:56.784Z,60.34
2018-12-26T09:31:26.845Z,60.74
2018-12-26T09:33:56.737Z,61.56
2018-12-26T09:36:26.328Z,62.41
2018-12-26T09:38:56.063Z,62.87
2018-12-26T09:41:25.745Z,63.89
2018-12-26T09:43:55.228Z,64.50
2018-12-26T09:46:24.935Z,64.46
2018-12-26T09:48:54.417Z,64.41
2018-12-26T09:51:24.135Z,64.30
2018-12-26T09:53:53.894Z,65.08
2018-12-26T09:56:23.273Z,66.22
2018-12-26T09:58:52.949Z,64.01
2018-12-26T10:01:24.452Z,63.11
2018-12-26T10:03:54.591Z,62.99
2018-12-26T10:06:24.408Z,62.74
2018-12-26T10:08:54.424Z,62.26
2018-12-26T10:11:23.884Z,61.83
2018-12-26T10:13:53.288Z,61.83
2018-12-26T10:16:23.403Z,62.25
2018-12-26T10:18:52.861Z,61.77
2018-12-26T10:21:22.345Z,61.78
2018-12-26T10:23:53.054Z,62.39
2018-12-26T10:26:23.257Z,62.72
2018-12-26T10:29:00.786Z,63.19
2018-12-26T10:31:22.998Z,67.90
2018-12-26T10:33:53.237Z,65.65
2018-12-26T10:36:22.797Z,62.89
2018-12-26T10:38:52.645Z,63.58
2018-12-26T10:41:22.519Z,62.71
2018-12-26T10:43:52.709Z,62.54
2018-12-26T10:46:24.654Z,63.08
2018-12-26T10:48:54.400Z,63.34
2018-12-26T10:51:25.053Z,62.30
2018-12-26T10:53:54.887Z,61.97
2018-12-26T10:56:24.551Z,61.56
2018-12-26T10:58:54.606Z,60.72
2018-12-26T11:01:25.824Z,60.38
2018-12-26T11:03:55.688Z,60.90
2018-12-26T11:06:25.141Z,61.02
2018-12-26T11:08:54.755Z,61.53
2018-12-26T11:11:24.416Z,60.67
2018-12-26T11:13:54.172Z,57.36
2018-12-26T11:16:23.845Z,57.25
2018-12-26T11:18:53.503Z,57.37
2018-12-26T11:21:23.119Z,56.76
2018-12-26T11:23:52.805Z,57.20
2018-12-26T11:26:24.483Z,57.53
2018-12-26T11:28:54.351Z,54.61
2018-12-26T11:31:24.049Z,52.37
2018-12-26T11:33:54.122Z,50.32
2018-12-26T11:36:23.589Z,48.52
2018-12-26T11:38:53.338Z,46.65
2018-12-26T11:41:23.175Z,48.34
2018-12-26T11:43:52.775Z,49.86
2018-12-26T11:46:22.154Z,54.02
2018-12-26T11:48:51.949Z,54.33
2018-12-26T11:51:21.488Z,54.37
2018-12-26T11:53:51.215Z,55.46
2018-12-26T11:56:20.765Z,54.65
2018-12-26T11:58:50.504Z,54.83
2018-12-26T12:01:19.900Z,53.46
2018-12-26T12:03:50.027Z,55.52
2018-12-26T12:06:19.417Z,56.54
2018-12-26T12:08:49.529Z,57.14
2018-12-26T12:11:19.343Z,57.64
2018-12-26T12:13:49.590Z,58.98
2018-12-26T12:16:19.092Z,58.96
2018-12-26T12:18:49.308Z,59.12
2018-12-26T12:21:19.087Z,58.91
2018-12-26T12:23:48.588Z,59.61
2018-12-26T12:26:18.535Z,60.42
2018-12-26T12:28:48.743Z,60.11
2018-12-26T12:31:18.271Z,60.04
2018-12-26T12:33:48.428Z,60.28
2018-12-26T12:36:17.869Z,60.30
2018-12-26T12:38:47.730Z,60.36
2018-12-26T12:41:17.984Z,60.21
2018-12-26T12:43:47.599Z,60.96
2018-12-26T12:46:17.389Z,61.40
2018-12-26T12:48:47.567Z,61.82
2018-12-26T12:51:17.178Z,61.25
2018-12-26T12:53:46.648Z,62.44
2018-12-26T12:56:16.704Z,62.28
2018-12-26T12:58:46.548Z,62.58
2018-12-26T13:01:16.132Z,62.61
2018-12-26T13:03:46.657Z,63.04
2018-12-26T13:06:16.148Z,63.28
2018-12-26T13:08:45.647Z,63.07
2018-12-26T13:11:15.748Z,62.62
2018-12-26T13:13:45.358Z,63.25
2018-12-26T13:16:16.096Z,63.63
2018-12-26T13:18:45.888Z,64.07
2018-12-26T13:21:15.593Z,63.92
2018-12-26T13:23:45.370Z,63.24
2018-12-26T13:26:14.985Z,63.80
2018-12-26T13:28:45.817Z,64.01
2018-12-26T13:31:15.839Z,64.60
2018-12-26T13:33:45.299Z,64.62
2018-12-26T13:36:14.661Z,70.07
2018-12-26T13:38:44.589Z,66.37
2018-12-26T13:41:14.271Z,64.65
2018-12-26T13:43:44.007Z,63.01
2018-12-26T13:46:14.184Z,62.29
2018-12-26T13:48:43.868Z,64.12
2018-12-26T13:51:14.172Z,64.12
2018-12-26T13:53:44.079Z,63.94
2018-12-26T13:56:13.981Z,64.63
2018-12-26T13:58:44.651Z,65.10
2018-12-26T14:01:14.584Z,65.44
2018-12-26T14:03:44.115Z,65.78
2018-12-26T14:06:13.783Z,65.45
2018-12-26T14:08:43.808Z,66.24
2018-12-26T14:11:13.344Z,66.20
2018-12-26T14:13:42.917Z,66.21
2018-12-26T14:16:12.677Z,66.79
2018-12-26T14:18:42.164Z,66.63
2018-12-26T14:21:11.943Z,66.44
2018-12-26T14:23:41.728Z,66.66
2018-12-26T14:26:11.600Z,67.43
2018-12-26T14:28:42.668Z,66.95
2018-12-26T14:31:12.351Z,67.80
2018-12-26T14:33:41.836Z,67.63
2018-12-26T14:36:11.610Z,67.57
2018-12-26T14:38:41.269Z,67.44
2018-12-26T14:41:11.027Z,68.48
2018-12-26T14:43:40.552Z,67.81
2018-12-26T14:46:10.292Z,67.84
2018-12-26T14:48:40.012Z,68.20
2018-12-26T14:51:09.519Z,68.36
2018-12-26T14:53:39.077Z,68.27
2018-12-26T14:56:09.357Z,68.74
2018-12-26T14:58:39.196Z,68.39
2018-12-26T15:01:08.631Z,69.17
2018-12-26T15:03:38.398Z,69.22
2018-12-26T15:06:08.697Z,68.81
2018-12-26T15:08:38.162Z,68.98
2018-12-26T15:11:07.600Z,68.75
2018-12-26T15:13:37.177Z,68.75
2018-12-26T15:16:06.619Z,68.90
2018-12-26T15:18:36.103Z,68.72
2018-12-26T15:21:06.167Z,69.43
2018-12-26T15:23:35.984Z,68.53
2018-12-26T15:26:05.699Z,68.15
2018-12-26T15:28:35.320Z,68.52
2018-12-26T15:31:05.031Z,68.38
2018-12-26T15:33:34.597Z,68.23
2018-12-26T15:36:04.479Z,67.92
2018-12-26T15:38:34.120Z,67.61
2018-12-26T15:41:03.804Z,67.00
2018-12-26T15:43:33.560Z,66.97
2018-12-26T15:46:03.648Z,67.20
2018-12-26T15:48:33.417Z,66.73
2018-12-26T15:51:03.221Z,66.65
2018-12-26T15:53:32.875Z,66.83
2018-12-26T15:56:02.384Z,66.51
2018-12-26T15:58:32.037Z,66.60
2018-12-26T16:01:01.728Z,66.43
2018-12-26T16:03:31.023Z,66.43
2018-12-26T16:06:00.701Z,66.24
2018-12-26T16:25:51.551Z,65.75
2018-12-26T16:28:20.935Z,65.07
2018-12-26T16:30:50.491Z,65.41
2018-12-26T16:50:42.961Z,64.04
2018-12-26T16:53:12.631Z,64.41
2018-12-26T16:55:42.246Z,63.05
2018-12-26T16:58:12.287Z,63.43
2018-12-26T17:00:41.971Z,62.89
2018-12-26T17:03:11.682Z,62.74
2018-12-26T17:05:41.594Z,62.50
2018-12-26T17:08:11.312Z,61.88
2018-12-26T17:10:40.864Z,62.69
2018-12-26T17:13:10.446Z,62.09
2018-12-26T17:15:39.929Z,62.50
2018-12-26T17:35:32.035Z,62.03
2018-12-26T17:56:32.541Z,63.06
2018-12-26T17:59:09.448Z,63.43
2018-12-26T18:01:48.363Z,64.24
2018-12-26T18:04:18.207Z,63.79
2018-12-26T18:06:47.542Z,63.45
2018-12-26T18:09:17.266Z,63.48
2018-12-26T18:29:09.970Z,62.94
2018-12-26T18:31:39.670Z,62.84
2018-12-26T18:34:09.199Z,62.64
2018-12-26T18:54:01.328Z,61.52
2018-12-26T18:56:31.167Z,61.30
2018-12-26T18:59:00.811Z,61.70
2018-12-26T19:01:30.995Z,62.20
2018-12-26T19:04:00.155Z,62.14
2018-12-26T19:06:29.885Z,62.12
2018-12-26T19:08:59.875Z,62.28
2018-12-26T19:11:29.700Z,61.99
2018-12-26T19:13:59.176Z,62.05
2018-12-26T19:16:29.037Z,62.64
2018-12-26T19:36:19.930Z,60.89
2018-12-26T19:38:49.980Z,60.40
2018-12-26T19:41:19.356Z,60.81
2018-12-26T19:43:49.067Z,60.60
2018-12-26T19:46:18.709Z,60.04
2018-12-26T19:48:48.116Z,59.72
2018-12-26T19:51:17.693Z,59.68
2018-12-26T19:53:47.368Z,60.15
2018-12-26T19:56:17.021Z,59.83
2018-12-26T19:58:46.517Z,59.82
2018-12-26T20:01:16.034Z,59.07
2018-12-26T20:21:07.349Z,58.95
2018-12-26T20:23:37.138Z,58.75
2018-12-26T20:26:06.636Z,59.14
2018-12-26T20:28:36.215Z,58.98
2018-12-26T20:31:06.358Z,59.02
2018-12-26T20:33:35.947Z,59.42
2018-12-26T20:36:05.627Z,58.47
2018-12-26T20:38:35.467Z,58.78
2018-12-26T20:41:05.177Z,59.33
2018-12-26T20:43:34.765Z,59.22
2018-12-26T20:46:04.752Z,59.19
2018-12-26T20:48:34.487Z,59.33
2018-12-26T20:51:04.217Z,59.69
2018-12-26T20:53:33.795Z,59.60
2018-12-26T20:56:03.415Z,59.44
2018-12-26T20:58:33.112Z,59.92
2018-12-26T21:01:02.668Z,59.52
2018-12-26T21:03:32.232Z,59.98
2018-12-26T21:06:02.001Z,59.78
2018-12-26T21:08:31.897Z,60.18
2018-12-26T21:11:01.565Z,60.11
2018-12-26T21:13:31.461Z,60.25
2018-12-26T21:16:01.867Z,59.88
2018-12-26T21:18:31.515Z,59.70
2018-12-26T21:21:01.022Z,59.98
2018-12-26T21:23:30.706Z,59.92
2018-12-26T21:26:00.296Z,59.40
2018-12-26T21:45:52.553Z,59.72
2018-12-26T21:48:22.190Z,60.14
2018-12-26T21:50:51.831Z,59.56
2018-12-26T22:10:43.704Z,60.15
2018-12-26T22:13:13.890Z,59.61
2018-12-26T22:33:05.334Z,59.66
2018-12-26T22:52:57.260Z,58.96
2018-12-26T22:55:26.833Z,59.38
2018-12-26T22:57:56.298Z,58.46
2018-12-26T23:00:34.427Z,59.16
2018-12-26T23:03:04.042Z,58.42
2018-12-26T23:05:33.656Z,58.60
2018-12-26T23:08:03.364Z,58.01
2018-12-26T23:10:33.145Z,58.51
2018-12-26T23:13:02.792Z,58.50
2018-12-26T23:32:56.033Z,57.70
2018-12-26T23:35:25.631Z,57.89
2018-12-26T23:55:16.599Z,57.17
2018-12-26T23:57:46.265Z,56.27
